Time;durP1;ratioP1;P1;durP2;ratioP2;P2;SDS_P1;SDS_P2;PMS_P1;PMS_P2;Temp;Humidity;BMP_temperature;BMP_pressure;BME280_temperature;BME280_humidity;BME280_pressure;Samples;Min_cycle;Max_cycle;Signal;HPM_P1;HPM_P2
2023/08/27 00:01:39;;;;;;;19.10;15.20;;;;;;;23.42;69.32;99313.87;106163;1254;69994;-72
2023/08/27 00:04:06;;;;;;;15.90;14.20;;;;;;;23.39;69.54;99312.08;105769;1259;72662;-72
2023/08/27 00:06:34;;;;;;;15.70;14.10;;;;;;;23.34;69.86;99314.23;105565;1259;59774;-70
2023/08/27 00:09:01;;;;;;;16.40;13.90;;;;;;;23.31;69.92;99308.89;105438;1255;60013;-71
2023/08/27 00:11:29;;;;;;;19.00;14.80;;;;;;;23.27;69.94;99306.80;105520;1259;73066;-71
2023/08/27 00:13:57;;;;;;;17.20;14.80;;;;;;;23.24;69.79;99300.52;105406;1254;69956;-72
2023/08/27 00:16:24;;;;;;;17.40;13.90;;;;;;;23.20;70.16;99300.00;105212;1254;72089;-71
2023/08/27 00:18:52;;;;;;;20.10;15.00;;;;;;;23.17;70.20;99299.33;105428;1253;61633;-72
2023/08/27 00:21:19;;;;;;;17.10;13.40;;;;;;;23.20;70.23;99296.95;105295;1254;60597;-70
2023/08/27 00:23:46;;;;;;;18.10;14.30;;;;;;;23.23;70.42;99294.44;105351;1256;73851;-72
2023/08/27 00:26:14;;;;;;;16.70;14.70;;;;;;;23.21;70.48;99294.20;105329;1259;70069;-72
2023/08/27 00:28:42;;;;;;;19.00;14.90;;;;;;;23.19;70.55;99295.81;105144;1254;71420;-71
2023/08/27 00:31:09;;;;;;;19.70;14.40;;;;;;;23.15;70.65;99296.92;105164;1254;60552;-72
2023/08/27 00:33:37;;;;;;;17.50;14.40;;;;;;;23.11;70.79;99298.73;105452;1259;60414;-71
2023/08/27 00:36:04;;;;;;;18.70;16.10;;;;;;;23.06;71.22;99300.49;105503;1257;73927;-73
2023/08/27 00:38:32;;;;;;;15.40;13.80;;;;;;;23.01;71.27;99305.09;105280;1254;70311;-72
2023/08/27 00:40:59;;;;;;;18.10;14.00;;;;;;;22.96;71.37;99308.15;105458;1259;72687;-74
2023/08/27 00:43:27;;;;;;;15.50;13.50;;;;;;;22.99;71.54;99307.96;105355;1259;60486;-73
2023/08/27 00:45:54;;;;;;;17.00;13.90;;;;;;;23.01;71.69;99306.55;105244;1254;60521;-72
2023/08/27 00:48:22;;;;;;;18.00;15.00;;;;;;;22.98;71.93;99307.46;105374;1254;72174;-70
2023/08/27 00:50:50;;;;;;;18.20;14.90;;;;;;;22.94;72.09;99312.02;105393;1255;70474;-72
2023/08/27 00:53:18;;;;;;;17.80;15.20;;;;;;;22.90;72.29;99311.09;105444;1259;72729;-73
2023/08/27 00:55:45;;;;;;;19.50;14.90;;;;;;;22.84;72.42;99312.40;105383;1257;60501;-73
2023/08/27 00:58:12;;;;;;;16.70;14.30;;;;;;;22.79;72.60;99318.48;105433;1254;60729;-73
2023/08/27 01:00:40;;;;;;;19.00;14.80;;;;;;;22.74;72.75;99320.66;105315;1254;73074;-74
2023/08/27 01:03:08;;;;;;;17.90;14.20;;;;;;;22.77;72.95;99324.05;105531;1258;70440;-71
2023/08/27 01:05:36;;;;;;;20.20;14.70;;;;;;;22.80;73.15;99326.67;105526;1254;71783;-73
2023/08/27 01:08:11;;;;;;;18.00;14.60;;;;;;;22.77;73.27;99326.80;105466;1256;60523;-73
2023/08/27 01:10:52;;;;;;;17.10;15.20;;;;;;;22.72;73.87;99322.75;105546;1254;60502;-72
2023/08/27 01:13:25;;;;;;;18.50;14.90;;;;;;;22.69;74.11;99325.66;105438;1259;73845;-72
2023/08/27 01:15:54;;;;;;;;;;;;;;;22.70;74.33;99323.98;105494;1254;68951;-71
2023/08/27 01:18:22;;;;;;;17.50;14.30;;;;;;;22.83;74.11;99324.15;105593;1254;72709;-73
2023/08/27 01:20:50;;;;;;;17.20;13.80;;;;;;;22.95;73.84;99326.77;105371;1257;60425;-73
2023/08/27 01:23:17;;;;;;;16.30;13.00;;;;;;;23.03;73.50;99330.91;105469;1259;60531;-73
2023/08/27 01:25:46;;;;;;;17.00;14.50;;;;;;;23.10;73.34;99332.88;105443;1254;73840;-71
2023/08/27 01:28:29;;;;;;;17.10;13.90;;;;;;;23.13;73.13;99330.61;105510;1254;70228;-73
2023/08/27 01:31:00;;;;;;;16.50;12.60;;;;;;;23.15;73.22;99323.96;105474;1254;72703;-73
2023/08/27 01:33:28;;;;;;;18.10;13.70;;;;;;;23.22;73.00;99325.96;105522;1254;61003;-71
2023/08/27 01:35:56;;;;;;;18.10;13.60;;;;;;;23.20;73.06;99321.66;105365;1253;60475;-72
2023/08/27 01:38:24;;;;;;;23.10;15.10;;;;;;;23.16;73.10;99316.61;105319;1253;72606;-73
2023/08/27 01:40:52;;;;;;;17.10;14.20;;;;;;;23.14;73.07;99312.52;105184;1254;70071;-71
2023/08/27 01:43:19;;;;;;;19.00;15.20;;;;;;;23.11;72.95;99317.88;105306;1257;72925;-73
2023/08/27 01:45:47;;;;;;;17.20;13.80;;;;;;;23.08;73.04;99314.34;105516;1254;60918;-73
2023/08/27 01:48:15;;;;;;;16.60;13.70;;;;;;;23.12;72.93;99312.67;105463;1259;60300;-72
2023/08/27 01:50:42;;;;;;;15.30;13.70;;;;;;;23.10;72.72;99307.79;105298;1254;71661;-72
2023/08/27 01:53:10;;;;;;;18.90;15.20;;;;;;;23.04;72.92;99302.48;105419;1254;70025;-70
2023/08/27 01:55:37;;;;;;;17.30;15.30;;;;;;;22.99;73.11;99306.48;105389;1254;72515;-71
2023/08/27 01:58:05;;;;;;;16.70;13.90;;;;;;;22.95;73.55;99303.70;105362;1254;60641;-70
2023/08/27 02:00:33;;;;;;;17.20;13.80;;;;;;;22.97;73.74;99303.39;105581;1253;60421;-72
2023/08/27 02:03:01;;;;;;;19.40;15.20;;;;;;;23.04;73.49;99304.48;105443;1254;72807;-70
2023/08/27 02:05:29;;;;;;;17.90;15.10;;;;;;;23.07;73.38;99306.30;105483;1254;68688;-71
2023/08/27 02:07:56;;;;;;;16.60;14.70;;;;;;;23.05;73.31;99304.87;105406;1254;72711;-72
2023/08/27 02:10:24;;;;;;;17.70;15.60;;;;;;;22.98;73.51;99300.20;105403;1256;60557;-71
2023/08/27 02:12:52;;;;;;;17.90;14.60;;;;;;;22.92;73.72;99293.61;105582;1254;60546;-73
2023/08/27 02:15:19;;;;;;;18.70;14.00;;;;;;;22.91;73.78;99293.48;105350;1254;74016;-72
2023/08/27 02:17:47;;;;;;;18.80;14.90;;;;;;;22.90;73.85;99295.16;105429;1254;70299;-72
2023/08/27 02:20:14;;;;;;;19.20;15.30;;;;;;;22.82;74.08;99300.95;105290;1254;72439;-71
2023/08/27 02:22:42;;;;;;;16.90;14.90;;;;;;;22.76;74.26;99302.05;105451;1254;60528;-74
2023/08/27 02:25:09;;;;;;;17.20;15.30;;;;;;;22.70;74.45;99304.39;105297;1262;60475;-72
2023/08/27 02:27:37;;;;;;;18.40;14.60;;;;;;;22.67;74.73;99301.48;105436;1259;73806;-73
2023/08/27 02:30:05;;;;;;;18.10;14.90;;;;;;;22.70;74.66;99299.95;105439;1254;69133;-72
2023/08/27 02:32:33;;;;;;;15.80;13.90;;;;;;;22.74;74.56;99298.08;105658;1259;72422;-70
2023/08/27 02:35:00;;;;;;;18.60;14.40;;;;;;;22.72;74.59;99295.63;105418;1256;60425;-71
2023/08/27 02:37:28;;;;;;;15.80;14.30;;;;;;;22.69;74.88;99292.95;105543;1256;60526;-74
2023/08/27 02:39:55;;;;;;;19.80;14.90;;;;;;;22.65;74.85;99294.83;105267;1260;74026;-74
2023/08/27 02:42:23;;;;;;;16.70;14.80;;;;;;;22.62;75.05;99295.91;105481;1257;68868;-72
2023/08/27 02:44:51;;;;;;;18.40;16.00;;;;;;;22.58;75.04;99294.44;105526;1257;72430;-72
2023/08/27 02:47:19;;;;;;;16.00;14.40;;;;;;;22.61;75.06;99294.02;105251;1257;61672;-72
2023/08/27 02:49:46;;;;;;;16.10;14.30;;;;;;;22.63;75.04;99295.17;105265;1257;60545;-70
2023/08/27 02:52:16;;;;;;;18.50;15.60;;;;;;;22.61;75.19;99303.92;105827;1258;73922;-72
2023/08/27 02:54:43;;;;;;;18.00;16.10;;;;;;;22.55;75.63;99304.64;105609;1254;69352;-72
2023/08/27 02:57:11;;;;;;;21.30;15.40;;;;;;;22.49;75.64;99304.52;105575;1259;71832;-72
2023/08/27 02:59:38;;;;;;;17.10;15.20;;;;;;;22.43;76.03;99305.18;105387;1256;61774;-71
2023/08/27 03:02:06;;;;;;;17.10;15.40;;;;;;;22.45;76.01;99306.06;105367;1259;60524;-70
2023/08/27 03:04:33;;;;;;;20.40;16.10;;;;;;;22.47;76.25;99302.95;105352;1254;72503;-73
2023/08/27 03:07:01;;;;;;;18.50;14.90;;;;;;;22.45;76.31;99308.77;105505;1254;69970;-74
2023/08/27 03:09:28;;;;;;;17.60;15.90;;;;;;;22.40;76.44;99314.36;105360;1257;70937;-74
2023/08/27 03:11:56;;;;;;;18.20;16.30;;;;;;;22.35;76.67;99318.48;105424;1254;60840;-73
2023/08/27 03:14:23;;;;;;;20.70;16.50;;;;;;;22.31;76.72;99319.35;105178;1261;60419;-72
2023/08/27 03:16:51;;;;;;;17.00;15.30;;;;;;;22.33;76.79;99321.05;105490;1254;72699;-73
2023/08/27 03:19:18;;;;;;;18.20;16.00;;;;;;;22.34;76.75;99319.92;105273;1260;68843;-73
2023/08/27 03:21:46;;;;;;;19.50;16.80;;;;;;;22.29;77.02;99323.06;105351;1259;70230;-70
2023/08/27 03:24:13;;;;;;;18.80;16.20;;;;;;;22.24;77.12;99324.30;105306;1257;60486;-71
2023/08/27 03:26:41;;;;;;;19.20;15.40;;;;;;;22.19;77.20;99318.71;105456;1259;60715;-71
2023/08/27 03:29:09;;;;;;;18.90;16.40;;;;;;;22.21;77.24;99304.73;105464;1254;75681;-69
2023/08/27 03:31:37;;;;;;;21.60;16.30;;;;;;;22.25;77.28;99307.21;105302;1260;68234;-71
2023/08/27 03:34:04;;;;;;;21.30;17.20;;;;;;;22.23;77.62;99314.95;105529;1259;71526;-71
2023/08/27 03:36:31;;;;;;;20.60;17.00;;;;;;;22.18;77.70;99322.23;105428;1259;60876;-71
2023/08/27 03:38:59;;;;;;;19.30;17.30;;;;;;;22.16;77.89;99323.88;105227;1254;60447;-73
2023/08/27 03:41:27;;;;;;;20.50;16.70;;;;;;;22.14;77.87;99316.34;105487;1254;72813;-71
2023/08/27 03:43:54;;;;;;;19.10;16.80;;;;;;;22.17;77.89;99319.89;105398;1254;70322;-69
2023/08/27 03:46:22;;;;;;;22.90;16.80;;;;;;;22.22;77.80;99319.88;105367;1260;72756;-71
2023/08/27 03:48:49;;;;;;;19.20;17.10;;;;;;;22.22;77.97;99327.30;105372;1254;60517;-73
2023/08/27 03:51:17;;;;;;;19.70;17.50;;;;;;;22.22;78.06;99331.35;105223;1255;60556;-72
2023/08/27 03:53:44;;;;;;;22.50;16.90;;;;;;;22.22;77.99;99336.44;105347;1259;73905;-72
2023/08/27 03:56:11;;;;;;;19.30;17.00;;;;;;;22.28;78.01;99329.86;105422;1259;69245;-70
2023/08/27 03:58:40;;;;;;;17.20;15.20;;;;;;;22.45;77.61;99326.58;105230;1257;72745;-71
2023/08/27 04:01:07;;;;;;;19.70;17.70;;;;;;;22.57;77.13;99330.86;105313;1254;60526;-70
2023/08/27 04:03:35;;;;;;;20.10;17.20;;;;;;;22.59;76.68;99334.30;105196;1261;60437;-71
2023/08/27 04:06:05;;;;;;;18.10;16.30;;;;;;;22.57;76.82;99339.89;105097;1254;72626;-69
2023/08/27 04:08:33;;;;;;;18.80;16.60;;;;;;;22.53;77.09;99341.59;105226;1254;70118;-72
2023/08/27 04:11:01;;;;;;;21.10;16.60;;;;;;;22.52;77.03;99344.08;105229;1254;72484;-71
2023/08/27 04:13:29;;;;;;;21.20;16.60;;;;;;;22.61;76.83;99342.69;105468;1257;60533;-71
2023/08/27 04:15:59;;;;;;;18.10;16.30;;;;;;;22.69;76.71;99343.69;105410;1257;60530;-70
2023/08/27 04:18:27;;;;;;;19.00;16.90;;;;;;;22.77;76.46;99347.21;105515;1253;73820;-71
2023/08/27 04:20:55;;;;;;;18.00;16.20;;;;;;;22.85;76.14;99344.95;105383;1260;68884;-71
2023/08/27 04:23:22;;;;;;;20.50;18.30;;;;;;;22.92;75.88;99340.35;105496;1257;71709;-70
2023/08/27 04:25:50;;;;;;;16.80;15.20;;;;;;;22.99;75.55;99333.30;105499;1257;61968;-71
2023/08/27 04:28:18;;;;;;;17.80;15.90;;;;;;;23.12;75.34;99330.49;105419;1260;60371;-71
2023/08/27 04:30:49;;;;;;;19.70;16.30;;;;;;;23.25;74.76;99330.63;105398;1255;72544;-73
2023/08/27 04:33:17;;;;;;;17.90;15.50;;;;;;;23.36;74.14;99333.85;105403;1259;69022;-70
2023/08/27 04:35:49;;;;;;;20.10;17.40;;;;;;;23.46;73.93;99332.48;105554;1257;72287;-72
2023/08/27 04:38:17;;;;;;;18.30;16.50;;;;;;;23.54;73.52;99333.50;105567;1259;60431;-73
2023/08/27 04:40:50;;;;;;;23.10;16.60;;;;;;;23.61;73.23;99335.77;105257;1254;60594;-71
2023/08/27 04:43:19;;;;;;;18.70;15.30;;;;;;;23.66;73.00;99335.84;105159;1254;72545;-70
2023/08/27 04:45:46;;;;;;;19.10;15.10;;;;;;;23.73;72.87;99337.07;105293;1259;69061;-69
2023/08/27 04:48:15;;;;;;;18.40;16.40;;;;;;;23.70;72.96;99335.80;105271;1257;72745;-73
2023/08/27 04:50:45;;;;;;;21.40;16.20;;;;;;;23.67;72.99;99334.48;105284;1257;60569;-72
2023/08/27 04:53:12;;;;;;;18.40;16.60;;;;;;;23.66;73.08;99331.09;105432;1256;60652;-73
2023/08/27 04:55:40;;;;;;;18.30;16.40;;;;;;;23.66;73.14;99326.36;105579;1259;73796;-73
2023/08/27 04:58:08;;;;;;;18.00;14.90;;;;;;;23.69;73.17;99327.40;105578;1259;69230;-72
2023/08/27 05:00:37;;;;;;;17.30;14.70;;;;;;;23.80;72.89;99332.98;105520;1259;72142;-72
2023/08/27 05:03:05;;;;;;;17.40;15.10;;;;;;;23.88;72.68;99330.82;105516;1256;60527;-70
2023/08/27 05:05:33;;;;;;;18.90;15.60;;;;;;;23.89;72.78;99328.33;105588;1259;60437;-72
2023/08/27 05:08:00;;;;;;;16.10;14.50;;;;;;;23.89;72.75;99326.16;105212;1262;72642;-73
2023/08/27 05:10:28;;;;;;;17.80;15.60;;;;;;;23.88;72.92;99320.45;105435;1262;69167;-72
2023/08/27 05:12:56;;;;;;;20.20;15.60;;;;;;;23.87;72.94;99320.83;105249;1257;71268;-72
2023/08/27 05:15:23;;;;;;;18.00;14.70;;;;;;;23.88;72.80;99325.11;105405;1257;62105;-70
2023/08/27 05:17:51;;;;;;;18.00;14.00;;;;;;;23.98;72.91;99325.96;105379;1260;60522;-73
2023/08/27 05:20:18;;;;;;;17.90;15.00;;;;;;;24.07;72.84;99326.42;105317;1254;72644;-71
2023/08/27 05:22:46;;;;;;;16.30;14.60;;;;;;;24.14;72.97;99321.35;105255;1261;68835;-73
2023/08/27 05:25:14;;;;;;;17.00;15.20;;;;;;;24.22;72.86;99323.48;105198;1254;72908;-72
2023/08/27 05:27:44;;;;;;;16.80;15.10;;;;;;;24.28;72.66;99322.45;105506;1256;60536;-71
2023/08/27 05:30:15;;;;;;;16.40;14.70;;;;;;;24.37;72.62;99321.59;105424;1257;60355;-72
2023/08/27 05:32:43;;;;;;;15.80;14.10;;;;;;;24.48;72.36;99317.22;105318;1253;74206;-73
2023/08/27 05:35:11;;;;;;;18.30;14.40;;;;;;;24.66;72.04;99323.83;105657;1259;70570;-73
2023/08/27 05:37:38;;;;;;;15.90;14.40;;;;;;;24.85;71.79;99325.52;105540;1254;71191;-73
2023/08/27 05:40:11;;;;;;;14.80;13.30;;;;;;;24.98;71.38;99322.58;105375;1254;60516;-74
2023/08/27 05:42:38;;;;;;;16.20;14.20;;;;;;;25.09;70.89;99318.20;105267;1262;60491;-74
2023/08/27 05:45:06;;;;;;;16.00;14.40;;;;;;;25.18;70.44;99312.38;105509;1254;74170;-71
2023/08/27 05:47:34;;;;;;;16.30;13.70;;;;;;;25.26;70.04;99310.70;105493;1254;69970;-71
2023/08/27 05:50:02;;;;;;;15.80;14.20;;;;;;;25.33;69.97;99308.41;105404;1257;71539;-71
2023/08/27 05:52:29;;;;;;;15.10;13.60;;;;;;;25.42;70.04;99305.87;105186;1254;60445;-71
2023/08/27 05:54:57;;;;;;;16.40;14.80;;;;;;;25.52;69.67;99304.54;105467;1261;60488;-74
2023/08/27 05:57:25;;;;;;;16.80;15.10;;;;;;;25.62;69.61;99297.80;105389;1262;73767;-73
2023/08/27 05:59:52;;;;;;;16.30;14.00;;;;;;;25.74;69.35;99292.91;105315;1254;70208;-72
2023/08/27 06:02:20;;;;;;;15.80;14.20;;;;;;;25.86;69.28;99299.38;105354;1254;74730;-73
2023/08/27 06:04:49;;;;;;;15.60;14.00;;;;;;;25.96;69.05;99299.91;105445;1256;60428;-72
2023/08/27 06:07:16;;;;;;;15.60;13.90;;;;;;;26.05;68.88;99301.33;105307;1259;60796;-71
2023/08/27 06:09:43;;;;;;;15.60;13.60;;;;;;;26.15;68.49;99299.85;105251;1260;73846;-71
2023/08/27 06:12:11;;;;;;;16.10;13.60;;;;;;;26.23;67.67;99289.89;105337;1259;68873;-71
2023/08/27 06:14:39;;;;;;;16.10;14.10;;;;;;;26.29;67.09;99291.20;105290;1254;72701;-71
2023/08/27 06:17:06;;;;;;;14.40;13.10;;;;;;;26.38;67.21;99285.20;105317;1257;60555;-73
2023/08/27 06:19:33;;;;;;;15.40;13.80;;;;;;;26.48;67.01;99285.45;105527;1254;60505;-70
2023/08/27 06:22:15;;;;;;;15.80;14.00;;;;;;;26.57;66.83;99285.55;105469;1259;72621;-69
2023/08/27 06:24:44;;;;;;;16.10;13.30;;;;;;;26.67;66.61;99284.25;105560;1262;69548;-72
2023/08/27 06:27:13;;;;;;;14.00;12.50;;;;;;;26.78;66.87;99282.94;105525;1260;72766;-71
2023/08/27 06:29:46;;;;;;;14.00;12.60;;;;;;;26.90;66.76;99283.05;105465;1259;61016;-71
2023/08/27 06:32:17;;;;;;;13.70;12.30;;;;;;;27.02;66.54;99283.74;105353;1259;60581;-71
2023/08/27 06:34:46;;;;;;;14.60;13.00;;;;;;;27.13;66.49;99283.58;105483;1261;73967;-72
2023/08/27 06:37:15;;;;;;;14.00;12.60;;;;;;;27.22;65.83;99286.55;105730;1259;69359;-72
2023/08/27 06:39:43;;;;;;;14.10;12.70;;;;;;;27.32;65.34;99291.87;105471;1259;71594;-70
2023/08/27 06:42:11;;;;;;;14.10;12.40;;;;;;;27.42;65.28;99292.73;105354;1262;60374;-72
2023/08/27 06:44:40;;;;;;;14.20;12.80;;;;;;;27.51;65.82;99289.84;105609;1259;60393;-70
2023/08/27 06:47:07;;;;;;;14.90;13.50;;;;;;;27.60;65.87;99291.10;105587;1254;72794;-68
2023/08/27 06:49:35;;;;;;;15.20;13.70;;;;;;;27.68;64.96;99288.48;105421;1260;68693;-71
2023/08/27 06:52:03;;;;;;;15.20;13.70;;;;;;;27.74;64.80;99282.13;105414;1254;71048;-71
2023/08/27 06:54:31;;;;;;;23.90;12.90;;;;;;;27.78;64.68;99275.15;105333;1254;60439;-71
2023/08/27 06:56:59;;;;;;;15.40;13.90;;;;;;;27.82;64.33;99277.28;105325;1254;60499;-71
2023/08/27 06:59:26;;;;;;;15.30;13.80;;;;;;;27.84;64.23;99278.23;105326;1255;73771;-73
2023/08/27 07:01:53;;;;;;;15.40;13.30;;;;;;;27.88;63.71;99280.60;105526;1254;70256;-73
2023/08/27 07:04:21;;;;;;;15.70;13.90;;;;;;;27.88;63.49;99279.02;105373;1260;71204;-71
2023/08/27 07:06:48;;;;;;;15.60;14.10;;;;;;;27.90;63.92;99280.20;105264;1257;60555;-68
2023/08/27 07:09:16;;;;;;;14.80;13.40;;;;;;;27.92;64.20;99280.41;105459;1259;60472;-73
2023/08/27 07:11:44;;;;;;;14.90;13.50;;;;;;;27.96;64.11;99284.04;105602;1259;75891;-72
2023/08/27 07:14:11;;;;;;;14.50;12.90;;;;;;;28.02;65.44;99283.96;105447;1259;68885;-72
2023/08/27 07:16:38;;;;;;;15.80;14.10;;;;;;;28.04;67.23;99284.36;105486;1254;72661;-73
2023/08/27 07:19:06;;;;;;;15.60;13.00;;;;;;;28.09;64.95;99283.98;105323;1260;60488;-72
2023/08/27 07:21:33;;;;;;;14.40;13.00;;;;;;;28.13;63.35;99283.77;105193;1262;60827;-71
2023/08/27 07:24:01;;;;;;;15.80;13.50;;;;;;;28.15;62.63;99289.30;105295;1260;74100;-71
2023/08/27 07:26:29;;;;;;;14.40;13.20;;;;;;;28.18;62.74;99289.52;105397;1263;68591;-73
2023/08/27 07:28:58;;;;;;;15.20;13.50;;;;;;;28.22;63.11;99289.63;105446;1259;71739;-71
2023/08/27 07:31:26;;;;;;;14.90;12.90;;;;;;;28.26;63.46;99290.71;105476;1256;60491;-71
2023/08/27 07:33:53;;;;;;;15.90;13.70;;;;;;;28.28;63.11;99291.34;105545;1259;60496;-73
2023/08/27 07:36:22;;;;;;;14.90;13.40;;;;;;;28.34;62.19;99293.05;105523;1254;72740;-72
2023/08/27 07:38:49;;;;;;;14.30;12.90;;;;;;;28.40;62.54;99290.71;105235;1254;70479;-71
2023/08/27 07:41:17;;;;;;;15.30;13.70;;;;;;;28.48;62.72;99291.46;105396;1257;72751;-72
2023/08/27 07:43:44;;;;;;;14.90;13.40;;;;;;;28.56;63.01;99293.98;105389;1259;60533;-71
2023/08/27 07:46:12;;;;;;;18.40;12.70;;;;;;;28.67;62.41;99296.54;105424;1259;60412;-69
2023/08/27 07:48:39;;;;;;;13.00;11.70;;;;;;;28.74;61.01;99294.29;105484;1257;72981;-72
2023/08/27 07:51:07;;;;;;;13.20;11.90;;;;;;;28.80;60.80;99298.61;105404;1254;70478;-71
2023/08/27 07:53:36;;;;;;;16.50;13.00;;;;;;;28.86;60.69;99298.35;105549;1254;72794;-74
2023/08/27 07:56:05;;;;;;;12.80;11.40;;;;;;;28.91;59.97;99305.16;105460;1257;60421;-71
2023/08/27 07:58:33;;;;;;;13.50;11.40;;;;;;;28.94;59.61;99298.41;105303;1254;60456;-73
2023/08/27 08:01:02;;;;;;;13.90;11.70;;;;;;;28.98;59.61;99296.98;105290;1254;73859;-71
2023/08/27 08:03:33;;;;;;;11.30;10.20;;;;;;;29.03;59.04;99295.25;105196;1260;69345;-71
2023/08/27 08:06:01;;;;;;;10.90;9.40;;;;;;;29.08;57.74;99296.42;105295;1259;72746;-72
2023/08/27 08:08:28;;;;;;;11.10;9.80;;;;;;;29.11;57.63;99292.70;105378;1259;60625;-73
2023/08/27 08:10:56;;;;;;;12.00;10.60;;;;;;;29.14;57.29;99289.28;105417;1259;60469;-71
2023/08/27 08:13:23;;;;;;;11.10;10.10;;;;;;;29.19;57.92;99292.41;105482;1259;73791;-71
2023/08/27 08:15:51;;;;;;;11.40;10.20;;;;;;;29.29;58.45;99287.98;105412;1259;69952;-73
2023/08/27 08:18:19;;;;;;;14.70;10.40;;;;;;;29.40;57.92;99283.15;105489;1254;72692;-71
2023/08/27 08:20:47;;;;;;;13.60;11.30;;;;;;;29.52;57.90;99284.87;105428;1259;60452;-72
2023/08/27 08:23:15;;;;;;;14.50;11.70;;;;;;;29.64;57.55;99286.05;105357;1260;266883;-71
2023/08/27 08:27:24;;;;;;;12.00;10.80;;;;;;;29.83;57.35;99281.29;102932;1289;600313;-69
2023/08/27 08:29:51;;;;;;;13.70;11.90;;;;;;;29.92;57.40;99288.55;104543;1273;59191;-74
2023/08/27 08:32:19;;;;;;;13.90;12.20;;;;;;;29.85;57.17;99284.33;104684;1270;60250;-71
2023/08/27 08:34:46;;;;;;;14.70;12.40;;;;;;;29.70;57.97;99279.54;104655;1271;71183;-70
2023/08/27 08:37:14;;;;;;;15.20;13.10;;;;;;;29.53;58.82;99276.05;104711;1267;70311;-71
2023/08/27 08:39:41;;;;;;;14.30;12.80;;;;;;;29.41;59.11;99282.27;104678;1267;73198;-70
2023/08/27 08:42:14;;;;;;;12.90;11.70;;;;;;;29.33;59.57;99278.64;104670;1269;165980;-71
2023/08/27 08:45:05;;;;;;;13.50;12.10;;;;;;;29.31;59.36;99280.25;104743;1263;59746;-73
2023/08/27 08:47:35;;;;;;;15.70;12.50;;;;;;;29.37;59.51;99273.79;105048;1268;72229;-73
2023/08/27 08:50:05;;;;;;;16.80;12.10;;;;;;;29.52;59.64;99271.70;105232;1258;70004;-71
2023/08/27 08:52:36;;;;;;;13.10;11.80;;;;;;;29.72;58.73;99275.44;105379;1261;71521;-71
2023/08/27 08:55:09;;;;;;;11.70;10.30;;;;;;;29.87;57.59;99276.05;105163;1260;60520;-71
2023/08/27 08:57:44;;;;;;;11.40;10.20;;;;;;;30.01;57.35;99272.17;105303;1256;60621;-72
2023/08/27 09:00:13;;;;;;;11.10;10.10;;;;;;;30.19;57.23;99271.77;105226;1256;73149;-73
2023/08/27 09:02:40;;;;;;;11.70;10.40;;;;;;;30.41;56.84;99279.86;105328;1257;70679;-73
2023/08/27 09:05:09;;;;;;;10.00;8.80;;;;;;;30.62;56.35;99283.47;105344;1257;72960;-73
2023/08/27 09:07:38;;;;;;;10.40;9.00;;;;;;;30.79;55.70;99278.76;105333;1260;59759;-73
2023/08/27 09:10:06;;;;;;;12.00;9.40;;;;;;;30.99;56.10;99275.08;105240;1263;60023;-73
2023/08/27 09:12:35;;;;;;;9.50;8.60;;;;;;;31.34;55.38;99274.29;105159;1265;73087;-75
2023/08/27 09:15:03;;;;;;;11.40;8.50;;;;;;;31.77;53.61;99268.95;105162;1263;68808;-74
2023/08/27 09:17:30;;;;;;;10.20;9.20;;;;;;;32.23;53.73;99264.59;105234;1259;72261;-74
2023/08/27 09:19:58;;;;;;;9.90;8.70;;;;;;;32.76;52.09;99263.45;105237;1257;59775;-74
2023/08/27 09:22:25;;;;;;;9.90;9.00;;;;;;;33.23;49.81;99258.98;105315;1259;59989;-75
2023/08/27 09:24:53;;;;;;;12.40;10.00;;;;;;;33.58;48.64;99258.30;105243;1257;71789;-73
2023/08/27 09:27:20;;;;;;;10.00;8.80;;;;;;;33.82;47.88;99255.02;105358;1259;69932;-72
2023/08/27 09:29:48;;;;;;;10.00;9.00;;;;;;;34.03;47.45;99260.20;105217;1257;72682;-73
2023/08/27 09:32:20;;;;;;;11.00;9.30;;;;;;;34.23;47.35;99258.92;105305;1263;59647;-74
2023/08/27 09:34:49;;;;;;;10.30;8.80;;;;;;;34.51;46.98;99252.36;105302;1256;59658;-73
2023/08/27 09:37:16;;;;;;;11.10;9.80;;;;;;;34.90;46.64;99256.15;105312;1263;75060;-74
2023/08/27 09:39:45;;;;;;;11.70;8.80;;;;;;;35.30;46.39;99253.95;105260;1262;60275;-72
2023/08/27 09:42:12;;;;;;;9.70;8.80;;;;;;;35.84;46.82;99246.74;105200;1257;63726;-75
2023/08/27 09:44:47;;;;;;;12.00;9.30;;;;;;;36.42;44.16;99249.05;105151;1257;59711;-74
2023/08/27 09:47:14;;;;;;;10.50;9.40;;;;;;;36.52;42.35;99253.45;105097;1257;59727;-74
2023/08/27 09:49:45;;;;;;;9.90;8.80;;;;;;;36.29;43.17;99252.02;105219;1257;66603;-72
2023/08/27 09:52:12;;;;;;;11.60;9.10;;;;;;;36.27;43.16;99252.61;105329;1263;60364;-75
2023/08/27 09:54:41;;;;;;;12.30;8.80;;;;;;;36.45;42.49;99251.27;104979;1257;63745;-74
2023/08/27 09:57:16;;;;;;;9.30;8.40;;;;;;;36.69;41.74;99254.88;104972;1264;59749;-72
2023/08/27 09:59:43;;;;;;;9.30;8.40;;;;;;;36.84;40.75;99257.26;104907;1258;59796;-72
2023/08/27 10:02:12;;;;;;;9.60;8.40;;;;;;;36.98;40.79;99257.92;105050;1264;64093;-74
2023/08/27 10:04:53;;;;;;;10.20;9.10;;;;;;;37.21;41.04;99256.99;105269;1262;60096;-74
2023/08/27 10:07:21;;;;;;;9.40;8.50;;;;;;;37.67;40.73;99256.00;104990;1264;63733;-73
2023/08/27 10:09:53;;;;;;;9.50;8.60;;;;;;;38.16;40.33;99249.86;105024;1257;59641;-74
2023/08/27 10:12:21;;;;;;;8.50;7.60;;;;;;;38.71;39.73;99250.99;105195;1256;59677;-74
2023/08/27 10:14:49;;;;;;;9.40;8.40;;;;;;;39.06;38.36;99251.92;105130;1262;64079;-74
2023/08/27 10:17:16;;;;;;;9.00;7.70;;;;;;;39.08;37.66;99253.72;105097;1258;61391;-73
2023/08/27 10:19:43;;;;;;;8.90;7.30;;;;;;;38.76;37.79;99250.14;105158;1259;63805;-71
2023/08/27 10:22:11;;;;;;;9.60;8.70;;;;;;;38.37;38.20;99243.77;105183;1259;59798;-73
2023/08/27 10:24:39;;;;;;;8.60;7.80;;;;;;;38.09;38.39;99236.56;105252;1260;59686;-72
2023/08/27 10:27:07;;;;;;;8.30;7.60;;;;;;;37.96;38.60;99236.83;105228;1256;64161;-74
2023/08/27 10:29:34;;;;;;;7.60;7.00;;;;;;;38.00;38.34;99232.09;105321;1262;60217;-74
2023/08/27 10:32:02;;;;;;;8.40;7.70;;;;;;;38.19;38.11;99230.09;105211;1257;63823;-72
2023/08/27 10:34:30;;;;;;;7.90;7.20;;;;;;;38.69;38.07;99229.29;105124;1256;59762;-75
2023/08/27 10:37:00;;;;;;;7.30;6.60;;;;;;;39.47;37.37;99233.41;105297;1256;59784;-74
2023/08/27 10:39:31;;;;;;;7.20;6.50;;;;;;;40.29;35.51;99237.92;105486;1256;73194;-73
2023/08/27 10:41:59;;;;;;;6.00;5.50;;;;;;;40.57;34.40;99231.70;105400;1256;61694;-73
2023/08/27 10:44:26;;;;;;;8.20;6.60;;;;;;;40.37;34.41;99229.59;105236;1262;62548;-74
2023/08/27 10:47:08;;;;;;;6.30;5.70;;;;;;;40.40;34.89;99226.20;105204;1262;59680;-73
2023/08/27 10:49:37;;;;;;;;;;;;;;;40.92;34.62;99219.61;105533;1261;59585;-75
2023/08/27 10:52:20;;;;;;;6.60;5.90;;;;;;;41.46;33.20;99222.95;105572;1256;64124;-73
2023/08/27 10:54:48;;;;;;;6.70;5.10;;;;;;;41.66;32.28;99219.75;105468;1259;61471;-73
2023/08/27 10:57:22;;;;;;;6.10;5.50;;;;;;;41.50;31.73;99220.52;105430;1256;63753;-75
2023/08/27 10:59:53;;;;;;;5.20;4.70;;;;;;;41.13;32.15;99209.91;105391;1256;59688;-75
2023/08/27 11:02:20;;;;;;;4.60;4.20;;;;;;;40.80;32.54;99209.27;105273;1256;59778;-74
2023/08/27 11:04:53;;;;;;;4.70;4.20;;;;;;;40.55;32.70;99206.07;105379;1257;64163;-73
2023/08/27 11:07:22;;;;;;;5.00;4.50;;;;;;;40.48;32.83;99202.35;105217;1257;61682;-73
2023/08/27 11:09:54;;;;;;;4.40;4.00;;;;;;;40.58;32.51;99202.20;105550;1256;63763;-74
2023/08/27 11:12:22;;;;;;;;;;;;;;;40.70;32.50;99201.45;105123;1260;60008;-74
2023/08/27 11:14:50;;;;;;;5.10;4.60;;;;;;;40.84;32.02;99198.24;105174;1261;59543;-73
2023/08/27 11:17:28;;;;;;;5.00;4.30;;;;;;;41.02;31.88;99193.27;105204;1256;62903;-73
2023/08/27 11:19:57;;;;;;;4.60;4.20;;;;;;;41.47;31.71;99193.25;105124;1262;60163;-75